createdAt,value
2018-08-11T00:01:12.215Z,2.93
2018-08-11T00:03:40.729Z,1.50
2018-08-11T00:06:09.260Z,1.60
2018-08-11T00:08:37.727Z,1.97
2018-08-11T00:11:06.213Z,1.50
2018-08-11T00:13:34.783Z,1.43
2018-08-11T00:16:03.013Z,2.10
2018-08-11T00:18:31.599Z,1.53
2018-08-11T00:21:00.220Z,1.60
2018-08-11T00:23:28.762Z,1.60
2018-08-11T00:25:57.278Z,1.40
2018-08-11T00:28:25.796Z,1.40
2018-08-11T00:30:54.336Z,1.40
2018-08-11T00:33:22.913Z,1.33
2018-08-11T00:35:51.359Z,1.20
2018-08-11T00:38:19.878Z,1.40
2018-08-11T00:40:48.414Z,2.43
2018-08-11T00:43:17.201Z,2.40
2018-08-11T00:45:45.680Z,1.40
2018-08-11T00:48:14.089Z,1.30
2018-08-11T00:50:43.772Z,1.37
2018-08-11T00:53:12.236Z,1.30
2018-08-11T00:55:40.690Z,1.40
2018-08-11T00:58:09.106Z,1.50
2018-08-11T01:00:37.652Z,1.43
2018-08-11T01:03:06.403Z,2.13
2018-08-11T01:05:34.898Z,1.47
2018-08-11T01:08:03.527Z,1.57
2018-08-11T01:10:31.903Z,1.60
2018-08-11T01:13:00.115Z,1.40
2018-08-11T01:15:28.623Z,1.20
2018-08-11T01:17:57.132Z,1.53
2018-08-11T01:20:25.675Z,1.93
2018-08-11T01:22:54.273Z,1.23
2018-08-11T01:25:22.798Z,1.43
2018-08-11T01:27:51.337Z,1.30
2018-08-11T01:30:21.740Z,1.73
2018-08-11T01:32:50.407Z,1.20
2018-08-11T01:35:18.919Z,1.00
2018-08-11T01:37:47.527Z,1.23
2018-08-11T01:40:16.847Z,1.20
2018-08-11T01:42:46.496Z,1.73
2018-08-11T01:45:15.491Z,1.77
2018-08-11T01:47:44.229Z,1.40
2018-08-11T01:50:14.422Z,1.40
2018-08-11T01:52:43.932Z,1.60
2018-08-11T01:55:13.647Z,1.60
2018-08-11T01:57:42.472Z,1.67
2018-08-11T02:00:12.548Z,1.93
2018-08-11T02:02:41.684Z,1.30
2018-08-11T02:05:11.006Z,1.30
2018-08-11T02:07:40.552Z,1.40
2018-08-11T02:10:13.720Z,1.40
2018-08-11T02:12:42.273Z,1.20
2018-08-11T02:15:12.177Z,1.30
2018-08-11T02:17:40.663Z,0.97
2018-08-11T02:20:11.840Z,1.50
2018-08-11T02:22:40.261Z,1.40
2018-08-11T02:25:09.217Z,1.23
2018-08-11T02:27:37.873Z,1.70
2018-08-11T02:30:08.046Z,1.20
2018-08-11T02:32:36.551Z,1.30
2018-08-11T02:35:06.141Z,1.70
2018-08-11T02:37:34.631Z,1.37
2018-08-11T02:40:03.375Z,1.40
2018-08-11T02:42:31.781Z,1.20
2018-08-11T02:45:00.314Z,1.40
2018-08-11T02:47:28.769Z,1.50
2018-08-11T02:49:57.285Z,1.23
2018-08-11T02:52:25.863Z,1.50
2018-08-11T02:54:54.254Z,1.40
2018-08-11T02:57:22.664Z,1.10
2018-08-11T02:59:52.388Z,1.27
2018-08-11T03:02:21.217Z,1.63
2018-08-11T03:04:49.642Z,1.13
2018-08-11T03:07:18.135Z,1.10
2018-08-11T03:09:46.594Z,1.00
2018-08-11T03:12:29.579Z,1.30
2018-08-11T03:14:58.088Z,0.87
2018-08-11T03:17:26.586Z,1.20
2018-08-11T03:19:54.971Z,1.03
2018-08-11T03:22:23.384Z,1.03
2018-08-11T03:24:51.822Z,1.00
2018-08-11T03:27:20.310Z,0.80
2018-08-11T03:29:48.771Z,1.00
2018-08-11T03:32:17.122Z,0.90
2018-08-11T03:34:45.213Z,1.10
2018-08-11T03:37:13.659Z,0.80
2018-08-11T03:39:42.076Z,0.90
2018-08-11T03:42:10.535Z,1.00
2018-08-11T03:44:39.059Z,0.80
2018-08-11T03:47:07.507Z,1.40
2018-08-11T03:49:35.965Z,1.10
2018-08-11T03:52:04.365Z,0.90
2018-08-11T03:54:32.757Z,0.80
2018-08-11T03:57:01.198Z,1.10
2018-08-11T03:59:29.567Z,0.90
2018-08-11T04:01:58.027Z,1.27
2018-08-11T04:04:26.498Z,1.10
2018-08-11T04:06:54.971Z,0.90
2018-08-11T04:09:23.417Z,1.20
2018-08-11T04:11:51.849Z,1.07
2018-08-11T04:14:20.410Z,1.00
2018-08-11T04:16:48.957Z,1.23
2018-08-11T04:19:17.486Z,1.03
2018-08-11T04:21:46.228Z,1.00
2018-08-11T04:24:14.686Z,0.80
2018-08-11T04:26:43.150Z,1.20
2018-08-11T04:29:11.678Z,0.90
2018-08-11T04:31:40.086Z,1.10
2018-08-11T04:34:08.647Z,0.90
2018-08-11T04:36:37.112Z,1.10
2018-08-11T04:39:07.664Z,1.23
2018-08-11T04:41:36.246Z,0.80
2018-08-11T04:44:04.734Z,0.87
2018-08-11T04:46:33.172Z,1.23
2018-08-11T04:49:01.632Z,1.20
2018-08-11T04:51:30.135Z,1.50
2018-08-11T04:53:58.551Z,1.33
2018-08-11T04:56:26.971Z,1.30
2018-08-11T04:58:55.391Z,1.10
2018-08-11T05:01:23.946Z,1.00
2018-08-11T05:03:52.468Z,0.93
2018-08-11T05:06:21.013Z,1.20
2018-08-11T05:08:49.499Z,0.90
2018-08-11T05:11:17.856Z,1.00
2018-08-11T05:13:46.372Z,1.20
2018-08-11T05:16:14.909Z,1.30
2018-08-11T05:18:43.408Z,1.23
2018-08-11T05:21:11.853Z,1.10
2018-08-11T05:23:40.272Z,1.07
2018-08-11T05:26:08.724Z,1.00
2018-08-11T05:28:37.100Z,1.27
2018-08-11T05:31:05.598Z,1.60
2018-08-11T05:33:34.062Z,2.20
2018-08-11T05:36:02.309Z,1.80
2018-08-11T05:38:30.394Z,1.80
2018-08-11T05:40:58.821Z,1.60
2018-08-11T05:43:27.282Z,2.00
2018-08-11T05:45:55.680Z,2.27
2018-08-11T05:48:24.070Z,2.30
2018-08-11T05:50:52.439Z,2.70
2018-08-11T05:53:20.887Z,2.27
2018-08-11T05:55:49.333Z,1.87
2018-08-11T05:58:17.754Z,1.90
2018-08-11T06:00:46.195Z,1.93
2018-08-11T06:03:14.610Z,2.37
2018-08-11T06:05:43.077Z,2.00
2018-08-11T06:08:11.508Z,1.70
2018-08-11T06:10:40.013Z,1.93
2018-08-11T06:13:08.548Z,1.90
2018-08-11T06:15:36.972Z,2.07
2018-08-11T06:18:05.765Z,2.30
2018-08-11T06:20:34.184Z,2.37
2018-08-11T06:23:02.712Z,2.30
2018-08-11T06:25:31.239Z,2.13
2018-08-11T06:27:59.708Z,2.10
2018-08-11T06:30:28.601Z,1.73
2018-08-11T06:32:56.978Z,1.90
2018-08-11T06:35:25.448Z,2.37
2018-08-11T06:37:53.913Z,2.10
2018-08-11T06:40:22.462Z,2.13
2018-08-11T06:42:50.864Z,2.00
2018-08-11T06:45:20.247Z,1.63
2018-08-11T06:47:48.611Z,1.87
2018-08-11T06:50:17.062Z,2.23
2018-08-11T06:52:45.447Z,1.70
2018-08-11T06:55:13.918Z,1.60
2018-08-11T06:57:42.343Z,1.80
2018-08-11T07:00:10.904Z,2.30
2018-08-11T07:02:39.465Z,2.03
2018-08-11T07:05:08.030Z,2.00
2018-08-11T07:07:36.485Z,2.00
2018-08-11T07:10:05.317Z,1.97
2018-08-11T07:12:33.849Z,2.00
2018-08-11T07:15:02.330Z,1.67
2018-08-11T07:17:31.123Z,1.73
2018-08-11T07:19:59.621Z,2.03
2018-08-11T07:22:28.098Z,1.60
2018-08-11T07:24:56.542Z,1.57
2018-08-11T07:27:25.052Z,1.77
2018-08-11T07:29:53.572Z,1.90
2018-08-11T07:32:22.017Z,2.00
2018-08-11T07:34:50.536Z,1.60
2018-08-11T07:37:19.045Z,1.60
2018-08-11T07:39:47.505Z,1.67
2018-08-11T07:42:15.546Z,1.50
2018-08-11T07:44:44.070Z,1.60
2018-08-11T07:47:12.598Z,1.90
2018-08-11T07:49:41.023Z,1.70
2018-08-11T07:52:09.421Z,1.77
2018-08-11T07:54:37.770Z,1.73
2018-08-11T07:57:06.163Z,1.80
2018-08-11T07:59:34.872Z,2.00
2018-08-11T08:02:03.299Z,2.03
2018-08-11T08:04:31.859Z,2.63
2018-08-11T08:07:00.289Z,2.10
2018-08-11T08:09:28.714Z,2.10
2018-08-11T08:11:57.196Z,3.20
2018-08-11T08:14:25.605Z,2.27
2018-08-11T08:16:54.213Z,2.50
2018-08-11T08:19:22.740Z,2.60
2018-08-11T08:21:51.189Z,2.70
2018-08-11T08:24:19.697Z,2.67
2018-08-11T08:26:48.334Z,2.90
2018-08-11T08:29:16.676Z,2.63
2018-08-11T08:31:45.985Z,2.30
2018-08-11T08:34:14.513Z,2.80
2018-08-11T08:36:43.029Z,3.20
2018-08-11T08:39:12.645Z,2.50
2018-08-11T08:41:41.413Z,2.50
2018-08-11T08:44:10.032Z,2.33
2018-08-11T08:46:38.187Z,2.70
2018-08-11T08:49:06.605Z,2.43
2018-08-11T08:51:35.072Z,2.30
2018-08-11T08:54:03.505Z,2.10
2018-08-11T08:56:32.089Z,2.30
2018-08-11T08:59:00.507Z,2.17
2018-08-11T09:01:28.916Z,1.87
2018-08-11T09:03:57.489Z,2.00
2018-08-11T09:06:25.957Z,2.10
2018-08-11T09:08:54.387Z,2.33
2018-08-11T09:11:22.892Z,2.70
2018-08-11T09:13:51.486Z,2.50
2018-08-11T09:16:19.926Z,2.23
2018-08-11T09:18:48.428Z,2.57
2018-08-11T09:21:16.999Z,2.23
2018-08-11T09:23:45.676Z,2.53
2018-08-11T09:27:38.672Z,2.73
2018-08-11T09:30:08.622Z,2.37
2018-08-11T09:32:38.143Z,2.40
2018-08-11T09:35:06.777Z,2.83
2018-08-11T09:37:35.317Z,2.83
2018-08-11T09:40:03.829Z,1.90
2018-08-11T09:42:32.342Z,2.70
2018-08-11T09:45:00.866Z,2.43
2018-08-11T09:47:29.381Z,2.20
2018-08-11T09:49:57.953Z,1.73
2018-08-11T09:52:26.549Z,2.20
2018-08-11T09:54:55.146Z,2.00
2018-08-11T09:57:23.634Z,2.13
2018-08-11T09:59:52.132Z,2.17
2018-08-11T10:02:21.760Z,1.97
2018-08-11T10:04:51.270Z,2.10
2018-08-11T10:07:19.880Z,2.50
2018-08-11T10:09:48.346Z,2.37
2018-08-11T10:12:17.229Z,2.57
2018-08-11T10:14:45.799Z,2.80
2018-08-11T10:17:14.079Z,2.27
2018-08-11T10:19:42.757Z,2.30
2018-08-11T10:22:11.298Z,3.00
2018-08-11T10:24:39.399Z,1.93
2018-08-11T10:27:07.872Z,1.60
2018-08-11T10:29:37.432Z,1.70
2018-08-11T10:32:06.012Z,1.90
2018-08-11T10:34:34.427Z,1.83
2018-08-11T10:37:02.992Z,2.13
2018-08-11T10:39:31.444Z,2.00
2018-08-11T10:41:59.916Z,2.17
2018-08-11T10:44:28.541Z,2.20
2018-08-11T10:46:57.032Z,2.40
2018-08-11T10:49:25.412Z,2.40
2018-08-11T10:51:53.869Z,2.63
2018-08-11T10:54:22.367Z,1.90
2018-08-11T10:56:50.766Z,2.13
2018-08-11T10:59:19.061Z,2.33
2018-08-11T11:01:47.415Z,2.20
2018-08-11T11:04:17.095Z,2.23
2018-08-11T11:06:45.661Z,2.30
2018-08-11T11:09:14.413Z,2.03
2018-08-11T11:11:43.041Z,2.10
2018-08-11T11:14:11.725Z,1.90
2018-08-11T11:16:40.271Z,2.20
2018-08-11T11:19:08.820Z,5.30
2018-08-11T11:21:37.332Z,2.37
2018-08-11T11:24:05.964Z,2.60
2018-08-11T11:26:34.443Z,2.30
2018-08-11T11:29:03.025Z,1.70
2018-08-11T11:31:31.795Z,1.70
2018-08-11T11:34:00.248Z,1.90
2018-08-11T11:36:28.646Z,1.90
2018-08-11T11:38:57.088Z,2.23
2018-08-11T11:41:25.564Z,1.93
2018-08-11T11:43:54.091Z,1.57
2018-08-11T11:46:23.643Z,1.97
2018-08-11T11:48:52.263Z,1.70
2018-08-11T11:51:20.918Z,2.20
2018-08-11T11:53:50.442Z,1.70
2018-08-11T11:56:18.998Z,1.97
2018-08-11T11:58:47.723Z,2.20
2018-08-11T12:01:16.173Z,1.90
2018-08-11T12:03:44.609Z,1.77
2018-08-11T12:06:13.080Z,1.70
2018-08-11T12:08:41.803Z,1.57
2018-08-11T12:11:10.467Z,1.90
2018-08-11T12:13:41.166Z,1.60
2018-08-11T12:16:09.684Z,1.73
2018-08-11T12:18:38.087Z,1.70
2018-08-11T12:21:06.471Z,1.83
2018-08-11T12:23:34.937Z,1.77
2018-08-11T12:26:03.376Z,1.53
2018-08-11T12:28:32.039Z,1.90
2018-08-11T12:31:00.883Z,1.83
2018-08-11T12:33:29.325Z,1.43
2018-08-11T12:35:57.825Z,1.70
2018-08-11T12:38:26.444Z,1.50
2018-08-11T12:40:54.881Z,1.70
2018-08-11T12:43:23.365Z,1.23
2018-08-11T12:45:51.809Z,1.80
2018-08-11T12:48:20.324Z,1.83
2018-08-11T12:50:48.908Z,1.40
2018-08-11T12:53:17.702Z,1.40
2018-08-11T12:55:46.099Z,1.60
2018-08-11T12:58:14.756Z,1.73
2018-08-11T13:00:43.389Z,1.67
2018-08-11T13:03:12.200Z,1.40
2018-08-11T13:05:40.889Z,1.40
2018-08-11T13:08:09.482Z,1.50
2018-08-11T13:10:38.047Z,1.33
2018-08-11T13:13:06.790Z,1.30
2018-08-11T13:15:35.406Z,1.40
2018-08-11T13:18:03.919Z,1.40
2018-08-11T13:20:32.506Z,1.53
2018-08-11T13:23:01.009Z,1.70
2018-08-11T13:25:29.432Z,1.63
2018-08-11T13:27:58.093Z,1.30
2018-08-11T13:30:26.690Z,1.60
2018-08-11T13:32:55.187Z,1.33
2018-08-11T13:35:23.825Z,1.27
2018-08-11T13:37:52.408Z,1.60
2018-08-11T13:40:20.916Z,1.37
2018-08-11T13:42:49.392Z,1.20
2018-08-11T13:45:17.860Z,1.90
2018-08-11T13:47:46.738Z,1.30
2018-08-11T13:50:15.294Z,1.60
2018-08-11T13:52:43.818Z,1.40
2018-08-11T13:55:12.492Z,1.30
2018-08-11T13:57:41.000Z,1.27
2018-08-11T14:00:10.030Z,1.60
2018-08-11T14:02:38.631Z,1.20
2018-08-11T14:05:07.060Z,1.43
2018-08-11T14:07:35.679Z,1.43
2018-08-11T14:10:04.859Z,1.50
2018-08-11T14:12:33.407Z,1.50
2018-08-11T14:15:01.940Z,1.50
2018-08-11T14:17:32.459Z,1.53
2018-08-11T14:20:01.072Z,1.30
2018-08-11T14:22:29.587Z,1.43
2018-08-11T14:24:58.155Z,1.40
2018-08-11T14:27:26.711Z,1.50
2018-08-11T14:29:55.433Z,1.60
2018-08-11T14:32:23.975Z,1.47
2018-08-11T14:34:52.506Z,1.60
2018-08-11T14:37:20.998Z,2.03
2018-08-11T14:39:49.675Z,1.30
2018-08-11T14:42:18.241Z,1.50
2018-08-11T14:44:46.712Z,1.40
2018-08-11T14:47:15.235Z,1.60
2018-08-11T14:49:43.754Z,1.20
2018-08-11T14:52:12.389Z,1.30
2018-08-11T14:54:40.881Z,1.20
2018-08-11T14:57:09.429Z,1.50
2018-08-11T14:59:38.000Z,1.50
2018-08-11T15:02:07.769Z,1.40
2018-08-11T15:04:36.262Z,1.73
2018-08-11T15:07:04.657Z,1.00
2018-08-11T15:09:33.258Z,1.67
2018-08-11T15:12:01.794Z,1.37
2018-08-11T15:14:30.379Z,1.57
2018-08-11T15:16:58.876Z,1.77
2018-08-11T15:19:27.379Z,1.40
2018-08-11T15:21:55.814Z,1.50
2018-08-11T15:24:24.292Z,1.43
2018-08-11T15:26:52.777Z,1.33
2018-08-11T15:29:21.271Z,1.80
2018-08-11T15:31:49.759Z,1.30
2018-08-11T15:34:18.407Z,2.07
2018-08-11T15:36:46.971Z,1.50
2018-08-11T15:39:15.464Z,1.27
2018-08-11T15:41:44.027Z,1.20
2018-08-11T15:44:12.518Z,1.50
2018-08-11T15:46:41.094Z,1.80
2018-08-11T15:49:09.625Z,1.83
2018-08-11T15:51:38.156Z,1.83
2018-08-11T15:54:06.710Z,1.30
2018-08-11T15:56:35.251Z,1.57
2018-08-11T15:59:03.977Z,1.37
2018-08-11T16:01:32.517Z,1.90
2018-08-11T16:04:01.109Z,1.80
2018-08-11T16:06:29.769Z,1.67
2018-08-11T16:08:58.222Z,1.87
2018-08-11T16:11:26.590Z,1.87
2018-08-11T16:13:54.986Z,1.23
2018-08-11T16:16:23.504Z,1.60
2018-08-11T16:18:52.076Z,1.97
2018-08-11T16:21:20.634Z,2.30
2018-08-11T16:23:49.199Z,1.40
2018-08-11T16:26:17.794Z,1.40
2018-08-11T16:28:46.219Z,1.87
2018-08-11T16:31:14.596Z,1.60
2018-08-11T16:33:42.983Z,1.63
2018-08-11T16:36:11.563Z,1.47
2018-08-11T16:38:39.978Z,1.33
2018-08-11T16:41:08.541Z,1.47
2018-08-11T16:43:36.884Z,1.63
2018-08-11T16:46:05.404Z,1.60
2018-08-11T16:48:33.797Z,1.50
2018-08-11T16:51:02.190Z,1.57
2018-08-11T16:53:30.751Z,1.40
2018-08-11T16:55:59.279Z,1.20
2018-08-11T16:58:27.754Z,1.20
2018-08-11T17:00:56.364Z,1.23
2018-08-11T17:03:24.915Z,1.60
2018-08-11T17:10:52.014Z,1.40
2018-08-11T17:13:20.783Z,1.20
2018-08-11T17:15:49.385Z,1.53
2018-08-11T17:18:18.223Z,1.20
2018-08-11T17:20:46.673Z,1.17
2018-08-11T17:23:15.239Z,1.57
2018-08-11T17:25:44.788Z,1.50
2018-08-11T17:28:13.357Z,1.60
2018-08-11T17:30:42.005Z,1.30
2018-08-11T17:33:10.632Z,1.47
2018-08-11T17:35:39.145Z,1.57
2018-08-11T17:38:07.825Z,1.40
2018-08-11T17:40:36.361Z,1.77
2018-08-11T17:43:04.977Z,1.40
2018-08-11T17:45:33.280Z,1.30
2018-08-11T17:48:01.857Z,1.70
2018-08-11T17:50:30.590Z,1.30
2018-08-11T17:52:59.024Z,1.47
2018-08-11T17:55:27.630Z,1.60
2018-08-11T17:57:56.464Z,1.63
2018-08-11T18:00:26.060Z,1.53
2018-08-11T18:02:54.297Z,1.57
2018-08-11T18:05:22.739Z,1.77
2018-08-11T18:07:51.041Z,1.60
2018-08-11T18:10:19.282Z,1.60
2018-08-11T18:12:47.918Z,1.70
2018-08-11T18:15:16.560Z,1.60
2018-08-11T18:17:45.054Z,1.67
2018-08-11T18:20:14.127Z,1.30
2018-08-11T18:22:42.302Z,1.40
2018-08-11T18:25:10.786Z,1.43
2018-08-11T18:27:39.411Z,1.50
2018-08-11T18:30:08.524Z,1.50
2018-08-11T18:32:37.140Z,2.03
2018-08-11T18:35:12.608Z,1.80
2018-08-11T18:37:41.216Z,2.17
2018-08-11T18:40:09.869Z,1.80
2018-08-11T18:42:38.562Z,1.80
2018-08-11T18:45:07.174Z,1.80
2018-08-11T18:47:35.801Z,1.90
2018-08-11T18:50:04.497Z,1.60
2018-08-11T18:52:33.248Z,2.20
2018-08-11T18:55:01.882Z,3.73
2018-08-11T18:57:30.424Z,2.03
2018-08-11T18:59:58.906Z,2.40
2018-08-11T19:02:27.570Z,2.23
2018-08-11T19:04:56.283Z,2.50
2018-08-11T19:07:24.877Z,2.07
2018-08-11T19:09:54.482Z,2.03
2018-08-11T19:12:23.079Z,1.90
2018-08-11T19:14:51.620Z,2.20
2018-08-11T19:17:20.256Z,2.17
2018-08-11T19:19:48.975Z,1.80
2018-08-11T19:22:17.504Z,2.50
2018-08-11T19:24:46.024Z,2.63
2018-08-11T19:27:14.826Z,2.10
2018-08-11T19:29:44.516Z,2.10
2018-08-11T19:32:12.981Z,1.90
2018-08-11T19:34:41.513Z,2.03
2018-08-11T19:37:10.141Z,1.90
2018-08-11T19:39:38.760Z,2.40
2018-08-11T19:42:07.465Z,1.70
2018-08-11T19:44:35.934Z,2.20
2018-08-11T19:47:04.282Z,1.90
2018-08-11T19:49:32.854Z,2.20
2018-08-11T19:52:01.377Z,2.43
2018-08-11T19:54:30.015Z,2.07
2018-08-11T19:56:58.456Z,2.40
2018-08-11T19:59:26.947Z,2.87
2018-08-11T20:01:55.616Z,2.47
2018-08-11T20:04:24.271Z,2.40
2018-08-11T20:06:52.912Z,2.70
2018-08-11T20:09:21.470Z,3.00
2018-08-11T20:11:49.949Z,2.20
2018-08-11T20:14:18.576Z,2.80
2018-08-11T20:16:47.169Z,2.50
2018-08-11T20:19:15.884Z,2.00
2018-08-11T20:21:44.275Z,2.17
2018-08-11T20:24:12.636Z,2.40
2018-08-11T20:26:41.298Z,2.60
2018-08-11T20:29:09.789Z,2.80
2018-08-11T20:31:38.190Z,2.73
2018-08-11T20:34:07.402Z,1.97
2018-08-11T20:36:35.834Z,2.80
2018-08-11T20:39:08.046Z,2.40
2018-08-11T20:41:36.621Z,2.70
2018-08-11T20:44:05.447Z,2.83
2018-08-11T20:46:34.332Z,2.27
2018-08-11T20:49:03.035Z,2.27
2018-08-11T20:51:31.249Z,2.57
2018-08-11T20:53:59.921Z,2.60
2018-08-11T20:56:28.692Z,2.50
2018-08-11T20:58:57.215Z,2.53
2018-08-11T21:01:25.795Z,2.90
2018-08-11T21:03:54.441Z,2.40
2018-08-11T21:06:22.870Z,3.00
2018-08-11T21:08:52.531Z,2.70
2018-08-11T21:11:22.189Z,2.30
2018-08-11T21:13:51.600Z,2.10
2018-08-11T21:16:20.147Z,2.50
2018-08-11T21:18:48.680Z,2.63
2018-08-11T21:21:17.142Z,2.93
2018-08-11T21:23:46.872Z,2.50
2018-08-11T21:26:15.234Z,2.60
2018-08-11T21:28:44.037Z,2.80
2018-08-11T21:31:12.687Z,2.73
2018-08-11T21:33:41.277Z,3.07
2018-08-11T21:36:09.908Z,1.90
2018-08-11T21:38:38.550Z,2.37
2018-08-11T21:41:07.836Z,2.77
2018-08-11T21:43:36.517Z,2.30
2018-08-11T21:46:05.596Z,2.67
2018-08-11T21:48:34.453Z,2.33
2018-08-11T21:51:03.073Z,2.57
2018-08-11T21:53:31.667Z,2.60
2018-08-11T21:56:00.407Z,2.17
2018-08-11T21:58:35.671Z,2.20
2018-08-11T22:01:05.678Z,2.40
2018-08-11T22:03:34.315Z,2.57
2018-08-11T22:06:02.855Z,2.47
2018-08-11T22:08:31.381Z,2.33
2018-08-11T22:10:59.979Z,2.57
2018-08-11T22:13:28.612Z,2.90
2018-08-11T22:15:57.159Z,2.57
2018-08-11T22:18:25.994Z,3.07
2018-08-11T22:21:00.510Z,2.83
2018-08-11T22:23:29.110Z,2.73
2018-08-11T22:26:02.010Z,2.60
2018-08-11T22:28:30.461Z,2.50
2018-08-11T22:30:58.731Z,3.07
2018-08-11T22:33:27.201Z,2.57
2018-08-11T22:36:05.366Z,2.80
2018-08-11T22:38:33.873Z,2.63
2018-08-11T22:41:02.464Z,3.23
2018-08-11T22:43:30.961Z,2.60
2018-08-11T22:45:59.454Z,2.70
2018-08-11T22:48:28.003Z,2.77
2018-08-11T22:50:56.579Z,2.63
2018-08-11T22:53:25.118Z,2.60
2018-08-11T22:55:53.636Z,2.67
2018-08-11T22:58:21.880Z,2.33
2018-08-11T23:00:50.462Z,2.80
2018-08-11T23:03:19.276Z,2.83
2018-08-11T23:05:47.980Z,2.40
2018-08-11T23:08:18.000Z,2.60
2018-08-11T23:10:46.215Z,2.60
2018-08-11T23:13:14.626Z,2.73
2018-08-11T23:15:43.047Z,2.63
2018-08-11T23:18:11.382Z,2.50
2018-08-11T23:20:39.834Z,2.57
2018-08-11T23:23:08.024Z,2.40
2018-08-11T23:25:36.542Z,2.20
2018-08-11T23:28:04.900Z,2.50
2018-08-11T23:30:33.361Z,2.57
2018-08-11T23:33:02.673Z,2.90
2018-08-11T23:35:31.970Z,2.83
2018-08-11T23:38:00.421Z,3.90
2018-08-11T23:40:28.822Z,3.00
2018-08-11T23:42:57.332Z,2.70
2018-08-11T23:45:25.785Z,2.63
2018-08-11T23:47:55.065Z,2.83
2018-08-11T23:50:23.549Z,3.00
2018-08-11T23:52:51.858Z,2.73
2018-08-11T23:55:21.511Z,2.80
2018-08-11T23:57:49.955Z,2.93
